createdAt,value
2018-08-25T00:00:14.967Z,37.56
2018-08-25T00:02:41.639Z,37.55
2018-08-25T00:05:08.281Z,37.62
2018-08-25T00:07:34.926Z,37.61
2018-08-25T00:10:01.604Z,37.58
2018-08-25T00:12:28.242Z,37.56
2018-08-25T00:14:54.901Z,37.56
2018-08-25T00:17:21.823Z,37.53
2018-08-25T00:19:48.450Z,37.57
2018-08-25T00:22:15.122Z,37.52
2018-08-25T00:24:41.762Z,37.57
2018-08-25T00:27:10.419Z,37.63
2018-08-25T00:29:35.078Z,37.58
2018-08-25T00:32:01.729Z,37.61
2018-08-25T00:34:28.411Z,37.63
2018-08-25T00:36:55.105Z,37.70
2018-08-25T00:39:21.791Z,37.71
2018-08-25T00:41:51.244Z,37.67
2018-08-25T00:44:17.892Z,37.71
2018-08-25T00:46:45.401Z,37.71
2018-08-25T00:49:12.040Z,37.77
2018-08-25T00:51:40.938Z,37.78
2018-08-25T00:54:07.566Z,37.83
2018-08-25T00:56:34.284Z,37.86
2018-08-25T00:59:01.001Z,37.94
2018-08-25T01:01:27.628Z,37.99
2018-08-25T01:03:54.263Z,38.05
2018-08-25T01:06:20.907Z,38.09
2018-08-25T01:08:47.601Z,38.18
2018-08-25T01:11:14.285Z,38.24
2018-08-25T01:13:41.061Z,38.27
2018-08-25T01:16:07.763Z,38.37
2018-08-25T01:18:34.465Z,38.41
2018-08-25T01:21:01.139Z,38.46
2018-08-25T01:23:27.743Z,38.55
2018-08-25T01:25:54.383Z,38.59
2018-08-25T01:28:21.117Z,38.67
2018-08-25T01:30:47.752Z,38.67
2018-08-25T01:33:14.439Z,38.73
2018-08-25T01:35:41.129Z,38.80
2018-08-25T01:38:07.769Z,38.86
2018-08-25T01:40:37.872Z,38.98
2018-08-25T01:43:04.571Z,38.98
2018-08-25T01:45:31.199Z,39.00
2018-08-25T01:47:57.839Z,39.15
2018-08-25T01:50:25.572Z,39.19
2018-08-25T01:52:51.116Z,39.27
2018-08-25T01:55:18.864Z,39.28
2018-08-25T01:57:44.568Z,39.28
2018-08-25T02:00:11.194Z,39.41
2018-08-25T02:02:37.873Z,39.47
2018-08-25T02:05:04.510Z,39.54
2018-08-25T02:07:32.569Z,39.65
2018-08-25T02:09:59.235Z,39.61
2018-08-25T02:12:24.580Z,39.78
2018-08-25T02:14:51.266Z,39.77
2018-08-25T02:17:17.901Z,39.90
2018-08-25T02:19:44.595Z,40.03
2018-08-25T02:22:11.236Z,39.89
2018-08-25T02:24:43.810Z,40.02
2018-08-25T02:27:10.531Z,40.07
2018-08-25T02:29:37.248Z,40.17
2018-08-25T02:32:03.930Z,40.21
2018-08-25T02:34:30.614Z,40.20
2018-08-25T02:36:57.249Z,40.26
2018-08-25T02:39:25.490Z,40.15
2018-08-25T02:41:50.682Z,40.28
2018-08-25T02:44:17.359Z,40.27
2018-08-25T02:46:43.967Z,40.29
2018-08-25T02:49:10.703Z,40.38
2018-08-25T02:51:37.357Z,40.41
2018-08-25T02:54:03.990Z,40.50
2018-08-25T02:56:32.437Z,40.59
2018-08-25T02:58:57.532Z,40.57
2018-08-25T03:01:24.183Z,40.58
2018-08-25T03:03:50.908Z,40.67
2018-08-25T03:06:17.560Z,40.76
2018-08-25T03:08:44.191Z,40.80
2018-08-25T03:11:10.967Z,40.87
2018-08-25T03:13:37.653Z,40.79
2018-08-25T03:16:04.248Z,40.81
2018-08-25T03:18:30.890Z,41.08
2018-08-25T03:20:57.607Z,41.10
2018-08-25T03:23:24.246Z,41.07
2018-08-25T03:25:50.888Z,41.25
2018-08-25T03:28:17.564Z,41.30
2018-08-25T03:30:44.209Z,41.30
2018-08-25T03:33:10.837Z,41.33
2018-08-25T03:35:37.577Z,41.43
2018-08-25T03:38:04.339Z,41.46
2018-08-25T03:40:30.976Z,41.42
2018-08-25T03:42:57.696Z,41.69
2018-08-25T03:45:24.344Z,41.65
2018-08-25T03:47:50.972Z,41.70
2018-08-25T03:50:17.617Z,41.79
2018-08-25T03:52:44.266Z,41.86
2018-08-25T03:55:10.983Z,41.83
2018-08-25T03:57:40.782Z,41.89
2018-08-25T04:00:07.400Z,42.02
2018-08-25T04:02:34.161Z,42.09
2018-08-25T04:05:00.890Z,41.97
2018-08-25T04:07:27.526Z,42.10
2018-08-25T04:09:54.189Z,42.17
2018-08-25T04:12:21.340Z,42.11
2018-08-25T04:14:48.044Z,42.10
2018-08-25T04:17:14.613Z,42.29
2018-08-25T04:19:41.270Z,42.27
2018-08-25T04:22:08.001Z,42.28
2018-08-25T04:24:34.587Z,42.36
2018-08-25T04:27:01.225Z,42.49
2018-08-25T04:29:27.865Z,42.60
2018-08-25T04:31:54.563Z,42.29
2018-08-25T04:34:21.200Z,42.29
2018-08-25T04:36:47.880Z,42.41
2018-08-25T04:39:14.512Z,42.30
2018-08-25T04:41:41.248Z,42.29
2018-08-25T04:44:07.987Z,42.24
2018-08-25T04:46:36.628Z,42.24
2018-08-25T04:49:03.279Z,42.15
2018-08-25T04:51:29.917Z,42.13
2018-08-25T04:53:56.642Z,42.03
2018-08-25T04:56:23.335Z,42.16
2018-08-25T04:58:49.965Z,42.00
2018-08-25T05:01:16.687Z,42.11
2018-08-25T05:03:44.660Z,42.05
2018-08-25T05:06:10.078Z,42.06
2018-08-25T05:08:36.721Z,42.14
2018-08-25T05:11:03.719Z,42.05
2018-08-25T05:13:31.430Z,41.80
2018-08-25T05:15:58.200Z,42.04
2018-08-25T05:18:24.803Z,42.06
2018-08-25T05:20:51.491Z,42.05
2018-08-25T05:23:18.227Z,41.91
2018-08-25T05:25:44.865Z,41.85
2018-08-25T05:28:11.488Z,41.84
2018-08-25T05:30:38.169Z,41.87
2018-08-25T05:33:04.811Z,41.91
2018-08-25T05:35:31.453Z,41.56
2018-08-25T05:37:58.209Z,41.78
2018-08-25T05:40:24.889Z,41.84
2018-08-25T05:42:51.486Z,41.20
2018-08-25T05:45:18.138Z,41.00
2018-08-25T05:47:44.798Z,41.24
2018-08-25T05:50:11.437Z,40.80
2018-08-25T05:52:38.180Z,40.48
2018-08-25T05:55:04.753Z,39.87
2018-08-25T05:57:31.535Z,39.83
2018-08-25T05:59:58.121Z,39.61
2018-08-25T06:02:24.809Z,39.37
2018-08-25T06:04:51.456Z,39.19
2018-08-25T06:07:18.113Z,39.23
2018-08-25T06:09:44.771Z,39.16
2018-08-25T06:12:12.538Z,39.06
2018-08-25T06:14:39.174Z,38.99
2018-08-25T06:17:05.815Z,39.22
2018-08-25T06:19:32.501Z,40.61
2018-08-25T06:21:59.199Z,40.53
2018-08-25T06:24:25.841Z,40.82
2018-08-25T06:26:55.126Z,41.14
2018-08-25T06:29:21.814Z,41.47
2018-08-25T06:31:48.616Z,41.61
2018-08-25T06:34:15.259Z,41.86
2018-08-25T06:36:42.022Z,42.07
2018-08-25T06:39:08.581Z,42.21
2018-08-25T06:41:35.222Z,42.14
2018-08-25T06:44:01.885Z,42.08
2018-08-25T06:46:28.605Z,42.19
2018-08-25T06:48:55.245Z,42.06
2018-08-25T06:51:22.973Z,42.39
2018-08-25T06:53:49.604Z,43.25
2018-08-25T06:56:18.668Z,43.66
2018-08-25T06:58:45.434Z,42.53
2018-08-25T07:01:12.033Z,41.51
2018-08-25T07:03:38.715Z,41.93
2018-08-25T07:06:05.433Z,42.10
2018-08-25T07:08:32.128Z,42.35
2018-08-25T07:10:58.777Z,42.19
2018-08-25T07:13:25.424Z,42.37
2018-08-25T07:15:54.331Z,42.50
2018-08-25T07:18:18.862Z,42.84
2018-08-25T07:20:45.491Z,42.86
2018-08-25T07:23:12.582Z,42.91
2018-08-25T07:25:39.317Z,43.49
2018-08-25T07:28:05.956Z,43.95
2018-08-25T07:30:32.693Z,44.16
2018-08-25T07:32:59.435Z,43.29
2018-08-25T07:35:26.115Z,43.07
2018-08-25T07:37:52.763Z,42.83
2018-08-25T07:40:19.415Z,42.49
2018-08-25T07:42:46.047Z,41.82
2018-08-25T07:45:13.139Z,41.83
2018-08-25T07:47:39.738Z,41.89
2018-08-25T07:50:06.421Z,41.03
2018-08-25T07:52:34.241Z,40.27
2018-08-25T07:55:00.884Z,41.17
2018-08-25T07:57:27.523Z,40.28
2018-08-25T07:59:54.222Z,40.57
2018-08-25T08:02:20.861Z,40.69
2018-08-25T08:04:47.611Z,40.51
2018-08-25T08:07:15.564Z,40.51
2018-08-25T08:09:40.898Z,40.17
2018-08-25T08:12:07.630Z,40.63
2018-08-25T08:14:34.246Z,39.81
2018-08-25T08:17:00.855Z,39.67
2018-08-25T08:19:27.522Z,39.42
2018-08-25T08:21:54.298Z,39.60
2018-08-25T08:24:20.987Z,39.09
2018-08-25T08:26:47.659Z,39.42
2018-08-25T08:29:14.308Z,39.15
2018-08-25T08:31:41.042Z,39.09
2018-08-25T08:34:07.752Z,39.07
2018-08-25T08:36:35.877Z,39.03
2018-08-25T08:39:01.138Z,38.98
2018-08-25T08:41:27.821Z,39.05
2018-08-25T08:43:54.477Z,39.17
2018-08-25T08:46:21.167Z,39.03
2018-08-25T08:48:47.811Z,38.98
2018-08-25T08:51:14.442Z,38.88
2018-08-25T08:53:41.159Z,38.79
2018-08-25T08:56:07.797Z,38.95
2018-08-25T08:58:34.434Z,38.77
2018-08-25T09:01:01.125Z,38.90
2018-08-25T09:03:27.865Z,38.78
2018-08-25T09:05:55.483Z,38.97
2018-08-25T09:08:21.073Z,38.81
2018-08-25T09:10:47.757Z,38.77
2018-08-25T09:13:17.692Z,38.77
2018-08-25T09:15:44.326Z,38.51
2018-08-25T09:18:11.041Z,38.69
2018-08-25T09:20:37.704Z,38.41
2018-08-25T09:23:05.675Z,38.61
2018-08-25T09:25:33.941Z,38.41
2018-08-25T09:28:00.581Z,38.34
2018-08-25T09:30:27.228Z,38.46
2018-08-25T09:32:53.882Z,38.11
2018-08-25T09:35:20.512Z,38.50
2018-08-25T09:37:47.147Z,38.21
2018-08-25T09:40:13.790Z,38.51
2018-08-25T09:42:40.467Z,38.19
2018-08-25T09:45:07.112Z,38.26
2018-08-25T09:47:33.787Z,38.27
2018-08-25T09:50:00.454Z,38.05
2018-08-25T09:52:28.204Z,38.29
2018-08-25T09:54:54.912Z,38.01
2018-08-25T09:57:21.544Z,38.07
2018-08-25T09:59:48.219Z,38.05
2018-08-25T10:02:14.868Z,37.87
2018-08-25T10:04:41.519Z,38.00
2018-08-25T10:07:08.201Z,37.89
2018-08-25T10:09:36.049Z,37.96
2018-08-25T10:12:01.480Z,37.96
2018-08-25T10:14:28.131Z,38.20
2018-08-25T10:16:54.785Z,38.46
2018-08-25T10:19:21.438Z,38.71
2018-08-25T10:21:48.077Z,39.18
2018-08-25T10:24:14.773Z,39.33
2018-08-25T10:26:41.380Z,39.55
2018-08-25T10:29:08.058Z,39.73
2018-08-25T10:31:34.705Z,39.52
2018-08-25T10:34:01.361Z,40.89
2018-08-25T10:36:28.020Z,40.63
2018-08-25T10:38:54.732Z,40.86
2018-08-25T10:41:24.507Z,41.15
2018-08-25T10:43:51.288Z,40.81
2018-08-25T10:46:17.928Z,41.27
2018-08-25T10:48:44.577Z,40.91
2018-08-25T10:51:11.233Z,40.76
2018-08-25T10:53:37.873Z,40.82
2018-08-25T10:56:04.517Z,40.60
2018-08-25T10:58:31.151Z,40.55
2018-08-25T11:00:57.918Z,40.51
2018-08-25T11:03:24.526Z,40.40
2018-08-25T11:05:51.228Z,40.35
2018-08-25T11:08:17.864Z,40.45
2018-08-25T11:10:44.572Z,40.28
2018-08-25T11:13:11.244Z,40.05
2018-08-25T11:15:37.877Z,40.15
2018-08-25T11:18:04.551Z,40.10
2018-08-25T11:20:31.266Z,39.97
2018-08-25T11:22:57.897Z,40.22
2018-08-25T11:25:25.108Z,39.57
2018-08-25T11:27:51.752Z,39.73
2018-08-25T11:30:18.489Z,39.76
2018-08-25T11:32:45.127Z,39.69
2018-08-25T11:35:11.764Z,39.95
2018-08-25T11:37:38.462Z,39.98
2018-08-25T11:40:05.092Z,39.88
2018-08-25T11:42:31.717Z,39.85
2018-08-25T11:44:58.391Z,39.82
2018-08-25T11:47:25.034Z,40.00
2018-08-25T11:49:51.683Z,39.94
2018-08-25T11:52:18.348Z,39.83
2018-08-25T11:54:45.016Z,39.99
2018-08-25T11:57:11.722Z,40.01
2018-08-25T11:59:39.774Z,40.23
2018-08-25T12:02:05.243Z,39.83
2018-08-25T12:04:31.850Z,39.92
2018-08-25T12:06:58.494Z,40.60
2018-08-25T12:09:25.176Z,41.52
2018-08-25T12:11:51.788Z,41.73
2018-08-25T12:14:18.468Z,41.94
2018-08-25T12:16:45.115Z,42.01
2018-08-25T12:19:11.745Z,41.98
2018-08-25T12:21:38.392Z,42.15
2018-08-25T12:24:06.478Z,42.23
2018-08-25T12:26:31.680Z,42.25
2018-08-25T12:28:58.332Z,42.26
2018-08-25T12:31:24.969Z,41.89
2018-08-25T12:33:54.073Z,41.27
2018-08-25T12:36:20.711Z,42.08
2018-08-25T12:38:47.352Z,42.96
2018-08-25T12:41:17.389Z,42.70
2018-08-25T12:43:44.036Z,42.50
2018-08-25T12:46:10.669Z,42.46
2018-08-25T12:48:37.433Z,42.16
2018-08-25T12:51:04.127Z,42.01
2018-08-25T12:53:30.862Z,43.13
2018-08-25T12:55:57.501Z,43.34
2018-08-25T12:58:24.127Z,43.08
2018-08-25T13:00:50.773Z,43.28
2018-08-25T13:03:17.464Z,43.21
2018-08-25T13:05:44.101Z,42.74
2018-08-25T13:08:10.751Z,42.84
2018-08-25T13:10:37.392Z,44.40
2018-08-25T13:13:04.080Z,44.06
2018-08-25T13:15:30.679Z,43.84
2018-08-25T13:17:57.363Z,43.64
2018-08-25T13:20:23.998Z,43.67
2018-08-25T13:22:50.649Z,43.43
2018-08-25T13:25:17.314Z,43.13
2018-08-25T13:27:44.045Z,43.38
2018-08-25T13:30:10.690Z,43.05
2018-08-25T13:32:37.326Z,44.16
2018-08-25T13:35:04.059Z,44.30
2018-08-25T13:37:30.715Z,44.61
2018-08-25T13:39:57.469Z,44.36
2018-08-25T13:42:24.113Z,44.13
2018-08-25T13:44:50.784Z,43.82
2018-08-25T13:47:17.662Z,43.75
2018-08-25T13:49:44.266Z,43.87
2018-08-25T13:52:11.007Z,43.71
2018-08-25T13:54:37.743Z,43.52
2018-08-25T13:57:06.277Z,43.46
2018-08-25T13:59:31.027Z,43.33
2018-08-25T14:01:57.621Z,43.20
2018-08-25T14:04:24.301Z,42.85
2018-08-25T14:06:53.390Z,42.66
2018-08-25T14:09:20.037Z,43.57
2018-08-25T14:11:46.707Z,44.30
2018-08-25T14:14:13.361Z,44.11
2018-08-25T14:16:40.010Z,43.85
2018-08-25T14:19:06.653Z,43.53
2018-08-25T14:21:33.280Z,43.38
2018-08-25T14:23:59.928Z,43.65
2018-08-25T14:26:26.673Z,43.46
2018-08-25T14:28:54.522Z,43.38
2018-08-25T14:31:19.919Z,43.44
2018-08-25T14:33:46.569Z,43.39
2018-08-25T14:36:14.141Z,43.33
2018-08-25T14:38:40.873Z,43.33
2018-08-25T14:41:07.476Z,43.32
2018-08-25T14:43:34.117Z,43.30
2018-08-25T14:46:00.749Z,43.26
2018-08-25T14:48:27.465Z,43.32
2018-08-25T14:50:54.096Z,43.32
2018-08-25T14:53:22.193Z,43.33
2018-08-25T14:55:47.472Z,43.46
2018-08-25T14:58:14.108Z,43.52
2018-08-25T15:00:40.863Z,43.52
2018-08-25T15:03:07.457Z,43.49
2018-08-25T15:05:34.113Z,43.49
2018-08-25T15:08:00.825Z,43.57
2018-08-25T15:10:27.451Z,43.65
2018-08-25T15:12:54.101Z,43.12
2018-08-25T15:15:20.776Z,42.86
2018-08-25T15:17:47.413Z,43.75
2018-08-25T15:20:16.752Z,44.60
2018-08-25T15:22:43.390Z,44.52
2018-08-25T15:25:10.035Z,44.34
2018-08-25T15:27:36.695Z,43.91
2018-08-25T15:30:03.334Z,43.71
2018-08-25T15:32:30.001Z,43.72
2018-08-25T15:34:57.908Z,43.70
2018-08-25T15:37:24.749Z,43.46
2018-08-25T15:39:49.974Z,43.41
2018-08-25T15:42:16.700Z,43.33
2018-08-25T15:44:43.342Z,43.31
2018-08-25T15:47:09.984Z,43.35
2018-08-25T15:49:36.618Z,43.34
2018-08-25T15:52:03.300Z,43.33
2018-08-25T15:54:29.909Z,43.34
2018-08-25T15:56:56.542Z,43.39
2018-08-25T15:59:23.179Z,43.39
2018-08-25T16:01:49.818Z,43.41
2018-08-25T16:04:16.469Z,43.46
2018-08-25T16:06:43.140Z,43.52
2018-08-25T16:09:09.832Z,43.41
2018-08-25T16:11:36.561Z,43.39
2018-08-25T16:14:03.245Z,43.36
2018-08-25T16:16:29.884Z,43.24
2018-08-25T16:18:56.567Z,43.11
2018-08-25T16:21:23.240Z,43.18
2018-08-25T16:23:49.889Z,43.24
2018-08-25T16:26:16.571Z,43.23
2018-08-25T16:28:43.185Z,43.16
2018-08-25T16:31:11.155Z,43.20
2018-08-25T16:33:36.495Z,43.15
2018-08-25T16:36:03.256Z,42.97
2018-08-25T16:38:33.140Z,43.34
2018-08-25T16:40:59.861Z,43.28
2018-08-25T16:43:26.510Z,43.19
2018-08-25T16:45:53.152Z,43.11
2018-08-25T16:48:19.935Z,43.15
2018-08-25T16:50:46.616Z,43.21
2018-08-25T16:53:13.295Z,43.14
2018-08-25T16:55:39.966Z,43.18
2018-08-25T16:58:06.613Z,43.23
2018-08-25T17:00:33.263Z,43.25
2018-08-25T17:02:59.991Z,43.37
2018-08-25T17:05:26.787Z,43.08
2018-08-25T17:07:53.342Z,43.32
2018-08-25T17:10:20.080Z,43.28
2018-08-25T17:12:46.722Z,43.22
2018-08-25T17:15:13.407Z,43.28
2018-08-25T17:17:40.008Z,43.20
2018-08-25T17:20:07.900Z,43.20
2018-08-25T17:22:33.535Z,43.21
2018-08-25T17:25:00.218Z,43.14
2018-08-25T17:27:26.984Z,43.19
2018-08-25T17:29:53.668Z,43.09
2018-08-25T17:32:20.307Z,43.18
2018-08-25T17:34:46.942Z,43.19
2018-08-25T17:37:13.621Z,43.31
2018-08-25T17:39:40.318Z,43.29
2018-08-25T17:42:07.019Z,43.41
2018-08-25T17:44:33.651Z,43.37
2018-08-25T17:47:00.324Z,43.43
2018-08-25T17:49:28.283Z,43.43
2018-08-25T17:51:53.640Z,43.43
2018-08-25T17:54:20.309Z,43.50
2018-08-25T17:56:47.061Z,43.45
2018-08-25T17:59:13.687Z,43.52
2018-08-25T18:01:40.357Z,43.50
2018-08-25T18:04:07.015Z,43.68
2018-08-25T18:06:33.701Z,43.58
2018-08-25T18:09:00.343Z,43.70
2018-08-25T18:11:28.441Z,43.57
2018-08-25T18:13:53.679Z,43.54
2018-08-25T18:16:20.307Z,43.72
2018-08-25T18:18:46.956Z,43.71
2018-08-25T18:21:13.593Z,43.69
2018-08-25T18:23:40.258Z,43.72
2018-08-25T18:26:08.113Z,43.70
2018-08-25T18:28:36.443Z,43.74
2018-08-25T18:31:03.080Z,43.76
2018-08-25T18:33:29.811Z,43.84
2018-08-25T18:35:56.451Z,43.80
2018-08-25T18:38:23.221Z,43.85
2018-08-25T18:40:49.886Z,43.93
2018-08-25T18:43:16.483Z,43.99
2018-08-25T18:45:43.131Z,43.95
2018-08-25T18:48:10.913Z,44.01
2018-08-25T18:50:36.547Z,44.09
2018-08-25T18:53:03.222Z,44.05
2018-08-25T18:55:29.870Z,44.07
2018-08-25T18:57:56.571Z,44.15
2018-08-25T19:00:25.100Z,44.07
2018-08-25T19:02:49.864Z,44.08
2018-08-25T19:05:16.510Z,44.13
2018-08-25T19:07:43.291Z,44.11
2018-08-25T19:10:09.929Z,44.12
2018-08-25T19:12:36.542Z,44.11
2018-08-25T19:15:03.202Z,44.09
2018-08-25T19:17:29.895Z,44.08
2018-08-25T19:19:56.532Z,44.16
2018-08-25T19:22:23.186Z,44.15
2018-08-25T19:24:49.916Z,44.13
2018-08-25T19:27:16.588Z,44.13
2018-08-25T19:29:43.329Z,44.19
2018-08-25T19:32:09.977Z,44.20
2018-08-25T19:34:36.655Z,44.10
2018-08-25T19:37:03.355Z,44.09
2018-08-25T19:39:30.019Z,44.06
2018-08-25T19:41:57.354Z,44.14
2018-08-25T19:44:23.985Z,44.13
2018-08-25T19:46:50.722Z,44.11
2018-08-25T19:49:17.388Z,44.11
2018-08-25T19:51:45.390Z,44.15
2018-08-25T19:54:10.798Z,44.11
2018-08-25T19:56:37.431Z,44.10
2018-08-25T19:59:04.085Z,44.14
2018-08-25T20:01:30.740Z,44.20
2018-08-25T20:03:57.358Z,44.17
2018-08-25T20:06:24.101Z,44.13
2018-08-25T20:08:50.789Z,44.22
2018-08-25T20:11:17.467Z,44.18
2018-08-25T20:13:44.350Z,44.12
2018-08-25T20:16:11.008Z,44.26
2018-08-25T20:18:37.708Z,44.13
2018-08-25T20:21:04.437Z,44.18
2018-08-25T20:23:31.025Z,44.18
2018-08-25T20:25:57.671Z,44.25
2018-08-25T20:28:24.348Z,44.18
2018-08-25T20:30:51.147Z,44.16
2018-08-25T20:33:17.754Z,44.20
2018-08-25T20:35:45.937Z,44.15
2018-08-25T20:38:11.154Z,44.15
2018-08-25T20:40:37.774Z,44.21
2018-08-25T20:43:04.418Z,44.17
2018-08-25T20:45:31.148Z,44.15
2018-08-25T20:47:57.811Z,44.13
2018-08-25T20:50:24.498Z,44.17
2018-08-25T20:52:51.186Z,44.11
2018-08-25T20:55:17.868Z,44.16
2018-08-25T20:57:44.608Z,44.20
2018-08-25T21:00:13.572Z,44.16
2018-08-25T21:02:40.203Z,44.12
2018-08-25T21:05:06.840Z,44.13
2018-08-25T21:07:33.577Z,44.15
2018-08-25T21:10:00.216Z,44.12
2018-08-25T21:12:26.852Z,44.11
2018-08-25T21:14:53.663Z,44.14
2018-08-25T21:17:20.266Z,44.11
2018-08-25T21:19:46.996Z,44.12
2018-08-25T21:22:13.604Z,44.07
2018-08-25T21:24:40.251Z,44.06
2018-08-25T21:27:06.950Z,44.06
2018-08-25T21:29:33.705Z,44.06
2018-08-25T21:32:05.744Z,44.03
2018-08-25T21:34:30.269Z,44.08
2018-08-25T21:36:56.963Z,44.10
2018-08-25T21:39:23.607Z,44.04
2018-08-25T21:41:50.259Z,44.02
2018-08-25T21:44:17.003Z,44.03
2018-08-25T21:46:43.742Z,43.99
2018-08-25T21:49:10.439Z,43.98
2018-08-25T21:51:37.107Z,43.95
2018-08-25T21:54:03.725Z,43.99
2018-08-25T21:56:30.385Z,43.99
2018-08-25T21:58:57.093Z,43.96
2018-08-25T22:01:23.729Z,43.95
2018-08-25T22:03:50.405Z,43.99
2018-08-25T22:06:17.428Z,43.96
2018-08-25T22:08:44.065Z,43.98
2018-08-25T22:11:10.915Z,44.01
2018-08-25T22:13:37.558Z,43.99
2018-08-25T22:16:07.423Z,43.92
2018-08-25T22:18:34.095Z,43.90
2018-08-25T22:21:00.745Z,43.90
2018-08-25T22:23:27.494Z,43.89
2018-08-25T22:25:54.217Z,44.05
2018-08-25T22:28:20.993Z,43.99
2018-08-25T22:30:47.641Z,43.97
2018-08-25T22:33:14.369Z,43.98
2018-08-25T22:35:41.006Z,44.00
2018-08-25T22:38:07.696Z,44.02
2018-08-25T22:40:34.465Z,43.98
2018-08-25T22:43:01.067Z,44.05
2018-08-25T22:45:27.806Z,43.97
2018-08-25T22:47:54.554Z,43.96
2018-08-25T22:50:21.192Z,44.01
2018-08-25T22:52:48.186Z,44.05
2018-08-25T22:55:14.883Z,44.05
2018-08-25T22:57:41.514Z,43.98
2018-08-25T23:00:08.185Z,43.92
2018-08-25T23:02:34.886Z,43.96
2018-08-25T23:05:01.582Z,44.01
2018-08-25T23:07:28.309Z,44.02
2018-08-25T23:09:55.068Z,44.06
2018-08-25T23:12:21.819Z,44.04
2018-08-25T23:14:48.462Z,44.05
2018-08-25T23:17:15.144Z,44.05
2018-08-25T23:19:41.768Z,44.00
2018-08-25T23:22:08.450Z,44.04
2018-08-25T23:24:35.118Z,44.10
2018-08-25T23:27:04.545Z,44.12
2018-08-25T23:29:31.230Z,44.13
2018-08-25T23:31:57.912Z,44.09
2018-08-25T23:34:24.572Z,44.06
2018-08-25T23:36:53.194Z,44.11
2018-08-25T23:39:19.214Z,44.13
2018-08-25T23:41:44.493Z,44.15
2018-08-25T23:44:11.170Z,44.15
2018-08-25T23:46:37.865Z,44.14
2018-08-25T23:49:07.938Z,44.23
2018-08-25T23:51:34.577Z,44.22
2018-08-25T23:54:01.221Z,44.18
2018-08-25T23:56:27.858Z,44.23
2018-08-25T23:58:58.925Z,44.23
